X  Κλείσε Στοιχεία αεροπορικών μετεωρολογικών δεδομένων METAR     LIML Milano Linate Airport
θερμοκρασία
28°C θερμοκρασία
21°C Σημείο δρόσου
66% Υγρασία



Ανεμος
8 KM/H
5 MPH
2 M/S
4 KTS



270°
Dytiká
Τρέχουσες συνθήκες

Μερικώς συννεφιασμένος Μερικώς συννεφιασμένος
πίεση 1012.92 (hPa) - 29.91 (inHg)
Ορατότητα 6.2 (μίλι) - 10 (km)
Aεροδρόμιο
Κωδικός αεροδρομίου LIML

Τοποθεσία: Milano Linate Airport
Απόσταση: 100 (km)

Metar:
LIML 131920Z 27004KT 9999 FEW060 28/21 Q1013 NOSIG

ώρα: 13-08-2020 21:20 CEST